createdAt,value
2022-10-02T00:02:05.528Z,100512.53
2022-10-02T00:05:13.046Z,100515.81
2022-10-02T00:08:24.180Z,100511.47
2022-10-02T00:11:41.358Z,100513.97
2022-10-02T00:14:45.365Z,100513.19
2022-10-02T00:17:50.312Z,100515.81
2022-10-02T00:21:00.819Z,100523.84
2022-10-02T00:24:06.793Z,100526.09
2022-10-02T00:27:27.203Z,100514.38
2022-10-02T00:30:37.054Z,100528.22
2022-10-02T00:33:52.864Z,100539.03
2022-10-02T00:37:06.569Z,100551.59
2022-10-02T00:40:33.293Z,100540.13
2022-10-02T00:43:44.754Z,100543.94
2022-10-02T00:46:55.058Z,100531.66
2022-10-02T00:50:21.091Z,100532.06
2022-10-02T00:53:36.478Z,100533.63
2022-10-02T00:56:44.017Z,100535.47
2022-10-02T00:59:58.422Z,100544.72
2022-10-02T01:03:15.627Z,100547.50
2022-10-02T01:06:17.289Z,100544.19
2022-10-02T01:09:19.359Z,100543.13
2022-10-02T01:12:23.138Z,100543.69
2022-10-02T01:15:31.931Z,100519.13
2022-10-02T01:18:33.793Z,100521.34
2022-10-02T01:21:42.626Z,100522.28
2022-10-02T01:24:49.276Z,100519.53
2022-10-02T01:27:53.340Z,100523.84
2022-10-02T01:31:01.086Z,100526.13
2022-10-02T01:34:03.692Z,100527.16
2022-10-02T01:37:06.331Z,100530.47
2022-10-02T01:40:22.466Z,100527.16
2022-10-02T01:43:28.523Z,100531.25
2022-10-02T01:46:32.987Z,100545.38
2022-10-02T01:49:47.082Z,100555.81
2022-10-02T01:52:59.898Z,100563.59
2022-10-02T01:56:10.959Z,100566.75
2022-10-02T01:59:23.368Z,100569.38
2022-10-02T02:02:33.894Z,100567.94
2022-10-02T02:05:47.114Z,100560.16
2022-10-02T02:09:01.810Z,100554.72
2022-10-02T02:12:11.815Z,100556.31
2022-10-02T02:15:20.206Z,100552.91
2022-10-02T02:18:28.371Z,100558.44
2022-10-02T02:21:33.522Z,100561.88
2022-10-02T02:24:40.153Z,100557.66
2022-10-02T02:27:46.930Z,100557.53
2022-10-02T02:30:52.723Z,100561.34
2022-10-02T02:33:59.441Z,100561.59
2022-10-02T02:37:05.039Z,100557.38
2022-10-02T02:40:10.256Z,100549.34
2022-10-02T02:43:19.996Z,100551.72
2022-10-02T02:46:27.058Z,100555.28
2022-10-02T02:49:31.989Z,100553.03
2022-10-02T02:52:38.753Z,100541.16
2022-10-02T02:55:45.300Z,100541.94
2022-10-02T02:58:53.386Z,100557.25
2022-10-02T03:01:55.219Z,100547.09
2022-10-02T03:04:56.877Z,100539.59
2022-10-02T03:08:01.668Z,100551.06
2022-10-02T03:11:10.335Z,100559.22
2022-10-02T03:14:35.548Z,100570.72
2022-10-02T03:17:51.924Z,100567.44
2022-10-02T03:21:03.225Z,100566.25
2022-10-02T03:24:10.046Z,100559.09
2022-10-02T03:27:17.680Z,100571.25
2022-10-02T03:30:21.966Z,100566.75
2022-10-02T03:33:25.538Z,100575.22
2022-10-02T03:36:27.875Z,100566.88
2022-10-02T03:39:29.717Z,100572.97
2022-10-02T03:42:34.751Z,100555.03
2022-10-02T03:45:51.057Z,100558.97
2022-10-02T03:48:53.049Z,100555.09
2022-10-02T03:51:54.701Z,100554.97
2022-10-02T03:54:57.545Z,100555.09
2022-10-02T03:58:02.672Z,100561.16
2022-10-02T04:01:10.964Z,100559.19
2022-10-02T04:04:17.651Z,100561.69
2022-10-02T04:07:25.897Z,100559.19
2022-10-02T04:10:32.541Z,100562.88
2022-10-02T04:13:39.927Z,100580.31
2022-10-02T04:16:50.281Z,100577.66
2022-10-02T04:19:55.722Z,100575.81
2022-10-02T04:23:02.008Z,100580.00
2022-10-02T04:26:07.667Z,100579.50
2022-10-02T04:29:17.483Z,100581.47
2022-10-02T04:32:24.597Z,100584.63
2022-10-02T04:35:37.964Z,100581.75
2022-10-02T04:39:04.447Z,100578.31
2022-10-02T04:42:20.760Z,100585.16
2022-10-02T04:45:36.348Z,100578.03
2022-10-02T04:49:15.521Z,100569.84
2022-10-02T04:52:31.761Z,100576.47
2022-10-02T04:55:47.218Z,100572.75
2022-10-02T04:59:05.286Z,100569.84
2022-10-02T05:02:24.620Z,100568.41
2022-10-02T05:05:44.617Z,100573.81
2022-10-02T05:08:59.665Z,100574.47
2022-10-02T05:12:26.014Z,100577.50
2022-10-02T05:15:51.572Z,100582.41
2022-10-02T05:19:20.558Z,100589.09
2022-10-02T05:22:45.157Z,100584.91
2022-10-02T05:26:14.643Z,100577.78
2022-10-02T05:29:38.033Z,100582.91
2022-10-02T05:33:08.175Z,100584.66
2022-10-02T05:36:39.156Z,100586.47
2022-10-02T05:39:53.009Z,100578.03
2022-10-02T05:43:01.444Z,100574.47
2022-10-02T05:46:10.386Z,100570.28
2022-10-02T05:49:17.834Z,100564.56
2022-10-02T05:52:23.840Z,100570.00
2022-10-02T05:55:35.390Z,100578.19
2022-10-02T05:58:41.661Z,100576.59
2022-10-02T06:01:47.633Z,100576.72
2022-10-02T06:04:57.844Z,100573.97
2022-10-02T06:08:02.709Z,100588.75
2022-10-02T06:11:11.339Z,100589.13
2022-10-02T06:14:20.265Z,100599.31
2022-10-02T06:17:27.022Z,100606.41
2022-10-02T06:20:34.388Z,100608.25
2022-10-02T06:23:39.762Z,100605.63
2022-10-02T06:26:47.845Z,100604.41
2022-10-02T06:29:57.450Z,100604.72
2022-10-02T06:33:05.452Z,100602.97
2022-10-02T06:36:31.974Z,100591.78
2022-10-02T06:39:46.945Z,100591.00
2022-10-02T06:43:00.909Z,100590.69
2022-10-02T06:46:14.432Z,100584.25
2022-10-02T06:49:26.285Z,100580.16
2022-10-02T06:52:38.566Z,100583.59
2022-10-02T06:55:51.286Z,100591.22
2022-10-02T06:59:07.402Z,100584.63
2022-10-02T07:02:33.197Z,100591.00
2022-10-02T07:05:53.926Z,100601.41
2022-10-02T07:09:18.527Z,100604.72
2022-10-02T07:12:34.815Z,100605.75
2022-10-02T07:16:10.965Z,100602.59
2022-10-02T07:19:28.869Z,100593.94
2022-10-02T07:22:45.642Z,100598.09
2022-10-02T07:26:07.761Z,100604.31
2022-10-02T07:29:22.345Z,100593.16
2022-10-02T07:32:43.531Z,100591.41
2022-10-02T07:35:53.563Z,100592.81
2022-10-02T07:39:06.873Z,100600.13
2022-10-02T07:42:24.219Z,100617.25
2022-10-02T07:45:29.315Z,100606.97
2022-10-02T07:48:56.103Z,100583.06
2022-10-02T07:52:04.629Z,100601.41
2022-10-02T07:55:14.713Z,100613.03
2022-10-02T07:58:22.862Z,100612.75
2022-10-02T08:01:30.513Z,100604.19
2022-10-02T08:04:37.315Z,100609.75
2022-10-02T08:07:39.312Z,100612.41
2022-10-02T08:10:45.483Z,100614.88
2022-10-02T08:13:53.402Z,100614.25
2022-10-02T08:16:58.048Z,100608.97
2022-10-02T08:20:02.887Z,100613.94
2022-10-02T08:23:10.044Z,100615.59
2022-10-02T08:26:18.021Z,100609.88
2022-10-02T08:29:25.368Z,100608.03
2022-10-02T08:32:34.731Z,100603.56
2022-10-02T08:35:49.815Z,100612.00
2022-10-02T08:39:02.347Z,100596.56
2022-10-02T08:42:35.931Z,100596.81
2022-10-02T08:46:03.974Z,100603.06
2022-10-02T08:49:43.792Z,100594.06
2022-10-02T08:53:24.339Z,100597.13
2022-10-02T08:56:43.263Z,100602.53
2022-10-02T09:00:08.721Z,100602.00
2022-10-02T09:03:45.822Z,100608.84
2022-10-02T09:07:29.173Z,100610.84
2022-10-02T09:11:15.401Z,100613.91
2022-10-02T09:14:43.550Z,100593.53
2022-10-02T09:17:48.477Z,100600.16
2022-10-02T09:21:14.366Z,100614.03
2022-10-02T09:24:52.547Z,100607.41
2022-10-02T09:28:18.955Z,100596.84
2022-10-02T09:32:04.092Z,100590.50
2022-10-02T09:35:46.340Z,100590.13
2022-10-02T09:39:25.028Z,100589.44
2022-10-02T09:42:59.101Z,100578.22
2022-10-02T09:46:30.424Z,100595.16
2022-10-02T09:50:04.650Z,100612.81
2022-10-02T09:53:54.335Z,100604.75
2022-10-02T09:57:36.595Z,100601.47
2022-10-02T10:00:58.797Z,100600.00
2022-10-02T10:05:00.931Z,100599.22
2022-10-02T10:08:22.239Z,100593.56
2022-10-02T10:11:47.651Z,100597.13
2022-10-02T10:15:19.875Z,100597.09
2022-10-02T10:19:13.799Z,100604.25
2022-10-02T10:22:44.446Z,100615.31
2022-10-02T10:26:33.849Z,100605.69
2022-10-02T10:29:58.998Z,100609.28
2022-10-02T10:33:34.422Z,100598.84
2022-10-02T10:37:14.909Z,100598.56
2022-10-02T10:40:38.044Z,100587.34
2022-10-02T10:44:09.498Z,100596.84
2022-10-02T10:47:43.682Z,100610.59
2022-10-02T10:50:54.433Z,100610.84
2022-10-02T10:54:26.243Z,100617.72
2022-10-02T10:57:44.684Z,100614.44
2022-10-02T11:00:59.283Z,100620.47
2022-10-02T11:04:24.685Z,100626.84
2022-10-02T11:07:40.513Z,100625.38
2022-10-02T11:10:52.594Z,100614.66
2022-10-02T11:14:09.999Z,100626.69
2022-10-02T11:17:32.180Z,100612.69
2022-10-02T11:20:54.900Z,100604.13
2022-10-02T11:24:18.632Z,100610.31
2022-10-02T11:27:38.596Z,100623.53
2022-10-02T11:30:54.949Z,100630.16
2022-10-02T11:34:28.997Z,100637.66
2022-10-02T11:37:54.507Z,100636.09
2022-10-02T11:41:10.001Z,100624.88
2022-10-02T11:44:20.863Z,100629.75
2022-10-02T11:47:42.095Z,100634.59
2022-10-02T11:51:01.900Z,100629.19
2022-10-02T11:54:19.397Z,100637.25
2022-10-02T11:57:32.096Z,100631.72
2022-10-02T12:00:56.379Z,100633.16
2022-10-02T12:04:12.726Z,100627.75
2022-10-02T12:07:25.487Z,100618.91
2022-10-02T12:10:39.537Z,100626.97
2022-10-02T12:14:01.108Z,100624.84
2022-10-02T12:17:16.493Z,100622.09
2022-10-02T12:21:02.002Z,100623.28
2022-10-02T12:24:31.852Z,100621.94
2022-10-02T12:27:50.831Z,100633.31
2022-10-02T12:31:01.465Z,100626.56
2022-10-02T12:34:14.036Z,100617.47
2022-10-02T12:37:23.014Z,100623.81
2022-10-02T12:40:33.348Z,100619.56
2022-10-02T12:44:03.144Z,100620.34
2022-10-02T12:47:22.044Z,100611.63
2022-10-02T12:50:40.621Z,100616.66
2022-10-02T12:54:26.754Z,100620.75
2022-10-02T12:57:51.901Z,100630.13
2022-10-02T13:01:15.183Z,100611.88
2022-10-02T13:04:46.234Z,100613.63
2022-10-02T13:08:05.496Z,100613.88
2022-10-02T13:11:15.995Z,100628.13
2022-10-02T13:14:38.658Z,100623.91
2022-10-02T13:17:46.679Z,100620.88
2022-10-02T13:20:57.481Z,100627.09
2022-10-02T13:24:16.120Z,100626.41
2022-10-02T13:27:34.368Z,100634.47
2022-10-02T13:30:43.496Z,100646.25
2022-10-02T13:34:09.970Z,100637.66
2022-10-02T13:37:21.942Z,100627.75
2022-10-02T13:40:28.517Z,100623.91
2022-10-02T13:43:51.883Z,100630.38
2022-10-02T13:47:08.524Z,100629.56
2022-10-02T13:50:23.795Z,100613.75
2022-10-02T13:53:58.232Z,100620.72
2022-10-02T13:57:11.579Z,100620.06
2022-10-02T14:00:38.770Z,100624.41
2022-10-02T14:03:55.189Z,100610.03
2022-10-02T14:07:05.819Z,100619.16
2022-10-02T14:10:14.717Z,100611.59
2022-10-02T14:13:31.107Z,100610.97
2022-10-02T14:16:49.196Z,100615.06
2022-10-02T14:20:11.248Z,100605.56
2022-10-02T14:23:39.286Z,100618.50
2022-10-02T14:26:57.396Z,100617.72
2022-10-02T14:30:07.074Z,100619.28
2022-10-02T14:33:23.339Z,100628.91
2022-10-02T14:36:34.109Z,100631.28
2022-10-02T14:39:37.449Z,100628.13
2022-10-02T14:42:55.882Z,100629.84
2022-10-02T14:46:10.591Z,100634.34
2022-10-02T14:49:36.440Z,100625.34
2022-10-02T14:53:01.881Z,100630.38
2022-10-02T14:56:30.661Z,100624.19
2022-10-02T14:59:59.718Z,100626.97
2022-10-02T15:03:05.836Z,100633.41
2022-10-02T15:06:25.818Z,100636.56
2022-10-02T15:09:35.456Z,100637.41
2022-10-02T15:12:50.185Z,100641.09
2022-10-02T15:16:15.163Z,100638.72
2022-10-02T15:19:21.657Z,100641.22
2022-10-02T15:22:31.729Z,100639.13
2022-10-02T15:25:57.722Z,100643.22
2022-10-02T15:29:13.693Z,100648.09
2022-10-02T15:32:44.075Z,100654.81
2022-10-02T15:36:05.487Z,100641.09
2022-10-02T15:39:29.757Z,100647.03
2022-10-02T15:42:55.091Z,100648.63
2022-10-02T15:46:15.526Z,100648.38
2022-10-02T15:49:30.947Z,100662.25
2022-10-02T15:52:44.536Z,100674.13
2022-10-02T15:55:53.617Z,100671.75
2022-10-02T15:59:09.519Z,100673.44
2022-10-02T16:02:24.911Z,100673.03
2022-10-02T16:05:42.819Z,100674.22
2022-10-02T16:09:16.262Z,100672.53
2022-10-02T16:12:40.000Z,100678.22
2022-10-02T16:15:51.983Z,100685.31
2022-10-02T16:19:07.203Z,100685.84
2022-10-02T16:22:20.473Z,100686.66
2022-10-02T16:25:38.748Z,100679.91
2022-10-02T16:28:53.239Z,100687.97
2022-10-02T16:32:07.728Z,100696.69
2022-10-02T16:35:48.775Z,100700.66
2022-10-02T16:38:52.260Z,100694.03
2022-10-02T16:42:01.839Z,100690.47
2022-10-02T16:45:32.582Z,100693.88
2022-10-02T16:48:40.956Z,100693.34
2022-10-02T16:51:53.439Z,100702.88
2022-10-02T16:55:00.603Z,100702.72
2022-10-02T16:58:18.446Z,100707.06
2022-10-02T17:01:30.968Z,100719.34
2022-10-02T17:04:44.191Z,100722.91
2022-10-02T17:07:55.911Z,100737.72
2022-10-02T17:11:15.616Z,100737.56
2022-10-02T17:14:24.321Z,100746.97
2022-10-02T17:17:36.398Z,100752.75
2022-10-02T17:20:43.652Z,100752.47
2022-10-02T17:23:57.170Z,100751.16
2022-10-02T17:27:20.405Z,100754.47
2022-10-02T17:30:24.383Z,100768.44
2022-10-02T17:33:32.299Z,100777.19
2022-10-02T17:36:38.210Z,100773.31
2022-10-02T17:39:51.665Z,100777.56
2022-10-02T17:43:01.222Z,100786.53
2022-10-02T17:46:34.384Z,100787.53
2022-10-02T17:49:52.369Z,100790.44
2022-10-02T17:53:21.993Z,100801.91
2022-10-02T17:56:51.451Z,100805.75
2022-10-02T18:00:10.795Z,100810.81
2022-10-02T18:03:45.573Z,100818.53
2022-10-02T18:06:57.859Z,100822.16
2022-10-02T18:10:16.617Z,100818.03
2022-10-02T18:13:31.382Z,100823.59
2022-10-02T18:16:41.519Z,100825.72
2022-10-02T18:19:53.700Z,100834.56
2022-10-02T18:23:12.966Z,100831.03
2022-10-02T18:26:26.309Z,100839.00
2022-10-02T18:29:46.656Z,100845.53
2022-10-02T18:33:25.944Z,100844.16
2022-10-02T18:36:40.674Z,100847.31
2022-10-02T18:40:04.613Z,100852.91
2022-10-02T18:43:31.419Z,100855.59
2022-10-02T18:46:49.469Z,100858.22
2022-10-02T18:50:07.517Z,100865.91
2022-10-02T18:53:30.524Z,100877.63
2022-10-02T18:56:45.968Z,100881.22
2022-10-02T18:59:54.995Z,100883.41
2022-10-02T19:03:18.366Z,100890.53
2022-10-02T19:06:26.626Z,100892.97
2022-10-02T19:09:30.064Z,100893.38
2022-10-02T19:12:33.785Z,100900.78
2022-10-02T19:15:36.580Z,100907.56
2022-10-02T19:18:38.785Z,100911.75
2022-10-02T19:21:40.787Z,100915.75
2022-10-02T19:24:44.113Z,100921.59
2022-10-02T19:27:54.334Z,100929.47
2022-10-02T19:31:03.430Z,100920.81
2022-10-02T19:34:12.414Z,100923.13
2022-10-02T19:37:17.195Z,100925.13
2022-10-02T19:40:21.790Z,100934.75
2022-10-02T19:43:28.743Z,100939.19
2022-10-02T19:46:35.671Z,100950.00
2022-10-02T19:49:39.862Z,100951.13
2022-10-02T19:52:46.816Z,100952.22
2022-10-02T19:55:52.571Z,100962.63
2022-10-02T19:59:00.127Z,100967.06
2022-10-02T20:02:14.108Z,100970.31
2022-10-02T20:05:21.041Z,100981.28
2022-10-02T20:08:26.606Z,100978.91
2022-10-02T20:11:34.497Z,100989.19
2022-10-02T20:14:41.999Z,100990.28
2022-10-02T20:17:43.918Z,100991.97
2022-10-02T20:20:47.263Z,100993.69
2022-10-02T20:23:53.800Z,101000.34
2022-10-02T20:27:01.141Z,101001.88
2022-10-02T20:30:10.186Z,101012.72
2022-10-02T20:33:18.173Z,101007.94
2022-10-02T20:36:23.346Z,101011.38
2022-10-02T20:39:29.489Z,101018.97
2022-10-02T20:42:35.648Z,101028.47
2022-10-02T20:45:44.869Z,101019.47
2022-10-02T20:49:18.109Z,101027.53
2022-10-02T20:52:42.812Z,101043.97
2022-10-02T20:55:53.313Z,101043.97
2022-10-02T20:59:39.928Z,101050.06
2022-10-02T21:03:17.515Z,101059.72
2022-10-02T21:06:53.011Z,101059.50
2022-10-02T21:10:21.801Z,101065.41
2022-10-02T21:13:46.260Z,101066.84
2022-10-02T21:17:16.007Z,101071.50
2022-10-02T21:20:52.132Z,101074.75
2022-10-02T21:24:35.994Z,101073.38
2022-10-02T21:28:18.432Z,101072.44
2022-10-02T21:31:38.519Z,101067.81
2022-10-02T21:34:55.874Z,101072.75
2022-10-02T21:38:27.793Z,101082.25
2022-10-02T21:42:26.426Z,101086.91
2022-10-02T21:45:54.212Z,101092.16
2022-10-02T21:49:41.829Z,101094.84
2022-10-02T21:53:39.203Z,101092.81
2022-10-02T21:57:15.284Z,101099.19
2022-10-02T22:00:21.819Z,101112.06
2022-10-02T22:03:56.360Z,101099.81
2022-10-02T22:07:09.258Z,101110.53
2022-10-02T22:10:22.041Z,101107.75
2022-10-02T22:13:28.038Z,101111.88
2022-10-02T22:16:39.020Z,101108.19
2022-10-02T22:19:58.441Z,101113.44
2022-10-02T22:23:13.662Z,101123.56
2022-10-02T22:26:33.768Z,101123.38
2022-10-02T22:29:44.967Z,101123.25
2022-10-02T22:33:10.655Z,101127.44
2022-10-02T22:36:51.314Z,101133.19
2022-10-02T22:40:00.810Z,101130.22
2022-10-02T22:43:06.832Z,101126.69
2022-10-02T22:46:21.100Z,101138.78
2022-10-02T22:49:29.323Z,101150.25
2022-10-02T22:52:37.741Z,101154.84
2022-10-02T22:55:48.714Z,101157.97
2022-10-02T22:58:59.593Z,101153.63
2022-10-02T23:02:08.196Z,101155.63
2022-10-02T23:05:15.496Z,101162.59
2022-10-02T23:08:25.899Z,101162.31
2022-10-02T23:11:37.097Z,101170.97
2022-10-02T23:14:59.192Z,101185.88
2022-10-02T23:18:05.042Z,101176.59
2022-10-02T23:21:23.212Z,101180.44
2022-10-02T23:24:30.482Z,101185.22
2022-10-02T23:27:47.323Z,101197.31
2022-10-02T23:31:01.574Z,101181.84
2022-10-02T23:34:12.420Z,101183.53
2022-10-02T23:37:21.431Z,101180.13
2022-10-02T23:40:46.549Z,101180.44
2022-10-02T23:43:54.354Z,101178.72
2022-10-02T23:47:09.993Z,101181.66
2022-10-02T23:50:21.848Z,101193.47
2022-10-02T23:53:43.657Z,101195.47
2022-10-02T23:57:12.227Z,101191.44
